Time;durP1;ratioP1;P1;durP2;ratioP2;P2;SDS_P1;SDS_P2;PMS_P1;PMS_P2;Temp;Humidity;BMP_temperature;BMP_pressure;BME280_temperature;BME280_humidity;BME280_pressure;Samples;Min_cycle;Max_cycle;Signal;HPM_P1;HPM_P2
2022/08/03 00:01:36;;;;;;;5.93;4.97;;;18.70;99.90;;;;;;5030281;28;20448;-68
2022/08/03 00:04:03;;;;;;;7.00;5.73;;;18.70;99.90;;;;;;5030325;28;20461;-68
2022/08/03 00:06:31;;;;;;;6.97;5.40;;;18.70;99.90;;;;;;5030152;28;20472;-68
2022/08/03 00:08:58;;;;;;;6.27;5.00;;;18.60;99.90;;;;;;5029711;28;20571;-68
2022/08/03 00:11:25;;;;;;;6.20;5.17;;;18.50;99.90;;;;;;5030340;28;20828;-68
2022/08/03 00:13:52;;;;;;;5.67;5.07;;;18.50;99.90;;;;;;5030569;28;20450;-68
2022/08/03 00:16:19;;;;;;;6.73;5.60;;;18.50;99.90;;;;;;5030122;28;20469;-66
2022/08/03 00:18:46;;;;;;;11.03;6.20;;;18.40;99.90;;;;;;5030085;28;20503;-67
2022/08/03 00:21:13;;;;;;;7.00;4.90;;;18.40;99.90;;;;;;5030250;28;20456;-68
2022/08/03 00:23:41;;;;;;;7.43;6.03;;;18.40;99.90;;;;;;5029814;28;20459;-68
2022/08/03 00:26:07;;;;;;;7.47;5.10;;;18.30;99.90;;;;;;5029716;28;20913;-68
2022/08/03 00:28:34;;;;;;;7.50;5.63;;;18.30;99.90;;;;;;5030347;28;20511;-68
2022/08/03 00:31:01;;;;;;;8.20;5.20;;;18.40;99.90;;;;;;5030510;28;20449;-68
2022/08/03 00:33:28;;;;;;;6.93;5.40;;;18.30;99.90;;;;;;5030301;28;20457;-68
2022/08/03 00:35:55;;;;;;;6.60;5.30;;;18.30;99.90;;;;;;5029455;28;20465;-67
2022/08/03 00:38:21;;;;;;;9.30;5.90;;;18.30;99.90;;;;;;5032896;28;20453;-69
2022/08/03 00:40:50;;;;;;;6.23;4.90;;;18.30;99.90;;;;;;5033511;28;20465;-68
2022/08/03 00:43:16;;;;;;;6.57;5.80;;;18.20;99.90;;;;;;5032853;28;20445;-68
2022/08/03 00:45:44;;;;;;;6.30;5.70;;;18.10;99.90;;;;;;5032456;28;20476;-67
2022/08/03 00:48:12;;;;;;;6.40;5.50;;;18.10;99.90;;;;;;5032733;28;20448;-67
2022/08/03 00:50:42;;;;;;;7.53;5.50;;;18.00;99.90;;;;;;5032532;28;20476;-67
2022/08/03 00:53:12;;;;;;;6.50;5.27;;;17.90;99.90;;;;;;5032505;28;20448;-67
2022/08/03 00:55:39;;;;;;;6.30;5.10;;;18.00;99.90;;;;;;5032297;28;20506;-68
2022/08/03 00:58:09;;;;;;;6.30;5.70;;;17.90;99.90;;;;;;5032557;28;20516;-65
2022/08/03 01:00:38;;;;;;;8.37;5.20;;;17.90;99.90;;;;;;5032414;28;20440;-68
2022/08/03 01:03:06;;;;;;;9.37;5.40;;;18.00;99.90;;;;;;5032414;28;20502;-67
2022/08/03 01:05:42;;;;;;;6.20;5.30;;;18.00;99.90;;;;;;5032028;28;21004;-68
2022/08/03 01:08:19;;;;;;;7.07;5.50;;;18.00;99.90;;;;;;5032421;28;20459;-67
2022/08/03 01:10:54;;;;;;;6.70;6.10;;;17.90;99.90;;;;;;5032245;28;21038;-68
2022/08/03 01:13:29;;;;;;;5.70;4.83;;;18.00;99.90;;;;;;5032366;28;20446;-67
2022/08/03 01:16:02;;;;;;;5.67;5.17;;;18.10;99.90;;;;;;5031541;28;20998;-67
2022/08/03 01:18:36;;;;;;;6.00;5.07;;;18.00;99.90;;;;;;5032560;28;20460;-67
2022/08/03 01:21:09;;;;;;;5.10;4.60;;;18.00;99.90;;;;;;5032400;28;20472;-68
2022/08/03 01:23:51;;;;;;;5.60;5.10;;;17.90;99.90;;;;;;5032060;28;20456;-67
2022/08/03 01:26:37;;;;;;;5.73;5.23;;;17.90;99.90;;;;;;5031578;28;20476;-67
2022/08/03 01:29:19;;;;;;;8.23;4.97;;;17.90;99.90;;;;;;5032053;28;20476;-68
2022/08/03 01:31:57;;;;;;;5.20;4.70;;;18.00;99.90;;;;;;5033221;28;21050;-67
2022/08/03 01:34:29;;;;;;;5.47;5.00;;;18.00;99.90;;;;;;5032585;28;20550;-67
2022/08/03 01:36:59;;;;;;;6.00;5.40;;;18.10;99.90;;;;;;5031973;28;20483;-68
2022/08/03 01:39:28;;;;;;;5.90;5.17;;;18.10;99.90;;;;;;5031856;28;20460;-67
2022/08/03 01:41:58;;;;;;;5.67;5.17;;;17.90;99.90;;;;;;5032024;28;20447;-68
2022/08/03 01:44:29;;;;;;;6.20;5.60;;;17.80;99.90;;;;;;5031503;28;20475;-66
2022/08/03 01:47:00;;;;;;;5.57;5.07;;;17.80;99.90;;;;;;5031441;28;20465;-67
2022/08/03 01:49:28;;;;;;;6.67;4.90;;;17.80;99.90;;;;;;5030995;28;20469;-68
2022/08/03 01:51:57;;;;;;;6.20;5.20;;;17.80;99.90;;;;;;5031615;28;20549;-67
2022/08/03 01:54:24;;;;;;;5.67;5.17;;;17.90;99.90;;;;;;5031274;28;20453;-67
2022/08/03 01:56:53;;;;;;;7.17;5.10;;;17.80;99.90;;;;;;5031338;28;20473;-68
2022/08/03 01:59:21;;;;;;;7.03;5.93;;;17.70;99.90;;;;;;5031611;28;20953;-67
2022/08/03 02:01:49;;;;;;;6.30;5.70;;;17.60;99.90;;;;;;5031363;28;20441;-68
2022/08/03 02:04:19;;;;;;;6.03;5.47;;;17.70;99.90;;;;;;5031338;28;20953;-67
2022/08/03 02:06:48;;;;;;;6.47;5.50;;;17.60;99.90;;;;;;5031023;28;20465;-68
2022/08/03 02:09:17;;;;;;;6.87;5.93;;;17.60;99.90;;;;;;5031315;28;20989;-67
2022/08/03 02:11:44;;;;;;;6.27;5.67;;;17.60;99.90;;;;;;5031304;28;20456;-68
2022/08/03 02:14:12;;;;;;;5.70;5.20;;;17.60;99.90;;;;;;5031230;28;20445;-68
2022/08/03 02:16:39;;;;;;;5.63;5.13;;;17.60;99.90;;;;;;5031219;28;20465;-66
2022/08/03 02:19:09;;;;;;;6.37;5.30;;;17.70;99.90;;;;;;5031124;28;20437;-68
2022/08/03 02:21:38;;;;;;;6.67;5.67;;;17.60;99.90;;;;;;5031259;28;20452;-68
2022/08/03 02:24:07;;;;;;;5.43;4.93;;;17.60;99.90;;;;;;5031021;28;20453;-68
2022/08/03 02:26:38;;;;;;;10.13;6.27;;;17.50;99.90;;;;;;5030383;28;20558;-67
2022/08/03 02:29:11;;;;;;;6.50;5.83;;;17.40;99.90;;;;;;5031005;28;20448;-67
2022/08/03 02:31:40;;;;;;;6.20;5.50;;;17.30;99.90;;;;;;5031090;28;20440;-68
2022/08/03 02:34:13;;;;;;;5.70;5.20;;;17.30;99.90;;;;;;5031037;28;20440;-67
2022/08/03 02:36:44;;;;;;;9.30;5.63;;;17.30;99.90;;;;;;5030541;28;20465;-67
2022/08/03 02:39:13;;;;;;;5.83;5.27;;;17.20;99.90;;;;;;5030620;28;20452;-67
2022/08/03 02:41:44;;;;;;;7.97;5.40;;;17.30;99.90;;;;;;5031013;28;20456;-66
2022/08/03 02:44:13;;;;;;;6.07;5.47;;;17.30;99.90;;;;;;5030781;28;20546;-68
2022/08/03 02:46:44;;;;;;;6.20;5.60;;;17.30;99.90;;;;;;5030476;28;20476;-67
2022/08/03 02:49:13;;;;;;;5.83;5.33;;;17.20;99.90;;;;;;5030698;28;20445;-67
2022/08/03 02:51:42;;;;;;;6.87;6.27;;;17.20;99.90;;;;;;5030622;28;20838;-67
2022/08/03 02:54:10;;;;;;;6.50;5.60;;;17.20;99.90;;;;;;5031121;28;20479;-65
2022/08/03 02:56:39;;;;;;;5.60;5.10;;;17.20;99.90;;;;;;5030369;28;20469;-67
2022/08/03 02:59:06;;;;;;;7.87;5.40;;;17.20;99.90;;;;;;5030411;28;20452;-65
2022/08/03 03:01:33;;;;;;;5.73;5.23;;;17.10;99.90;;;;;;5030374;28;20499;-67
2022/08/03 03:04:00;;;;;;;6.47;5.80;;;17.20;99.90;;;;;;5030272;28;20480;-67
2022/08/03 03:06:29;;;;;;;6.17;5.57;;;17.10;99.90;;;;;;5029820;28;20583;-67
2022/08/03 03:08:57;;;;;;;6.33;5.70;;;17.10;99.90;;;;;;5030485;28;20437;-67
2022/08/03 03:11:26;;;;;;;7.13;5.40;;;17.00;99.90;;;;;;5030186;28;20473;-67
2022/08/03 03:13:53;;;;;;;6.70;6.10;;;17.00;99.90;;;;;;5030317;28;20445;-66
2022/08/03 03:16:21;;;;;;;5.87;5.27;;;17.00;99.90;;;;;;5029658;28;20460;-67
2022/08/03 03:18:49;;;;;;;6.03;5.43;;;17.00;99.90;;;;;;5029976;28;20456;-67
2022/08/03 03:21:18;;;;;;;7.80;5.50;;;17.00;99.90;;;;;;5030022;28;20449;-67
2022/08/03 03:23:46;;;;;;;7.30;6.07;;;17.00;99.90;;;;;;5029990;28;20498;-67
2022/08/03 03:26:15;;;;;;;6.87;6.17;;;16.90;99.90;;;;;;5029430;28;20480;-66
2022/08/03 03:28:42;;;;;;;6.73;5.40;;;16.90;99.90;;;;;;5030052;28;20468;-65
2022/08/03 03:31:09;;;;;;;6.50;5.90;;;16.90;99.90;;;;;;5029592;28;20488;-66
2022/08/03 03:33:38;;;;;;;6.70;6.10;;;16.90;99.90;;;;;;5029833;28;20511;-67
2022/08/03 03:36:05;;;;;;;6.87;6.17;;;16.90;99.90;;;;;;5029469;28;20989;-67
2022/08/03 03:38:33;;;;;;;9.23;6.20;;;16.90;99.90;;;;;;5029902;28;21077;-67
2022/08/03 03:41:00;;;;;;;5.53;5.03;;;16.90;99.90;;;;;;5029944;28;20441;-67
2022/08/03 03:43:29;;;;;;;6.43;5.73;;;16.90;99.90;;;;;;5029843;28;20440;-67
2022/08/03 03:45:57;;;;;;;5.77;5.27;;;16.80;99.90;;;;;;5029710;28;20468;-65
2022/08/03 03:48:25;;;;;;;6.83;6.13;;;16.80;99.90;;;;;;5030118;28;20448;-67
2022/08/03 03:50:52;;;;;;;7.17;5.63;;;16.70;99.90;;;;;;5029786;28;21002;-67
2022/08/03 03:53:19;;;;;;;7.43;5.43;;;16.70;99.90;;;;;;5029718;28;20449;-68
2022/08/03 03:55:46;;;;;;;6.83;6.17;;;16.60;99.90;;;;;;5029353;28;20461;-67
2022/08/03 03:58:13;;;;;;;7.20;5.70;;;16.60;99.90;;;;;;5029492;28;20464;-67
2022/08/03 04:00:44;;;;;;;6.27;5.43;;;16.60;99.90;;;;;;5029441;28;20446;-67
2022/08/03 04:03:11;;;;;;;6.60;6.00;;;16.60;99.90;;;;;;5029562;28;20448;-67
2022/08/03 04:11:14;;;;;;;6.53;5.93;;;16.70;99.90;;;;;;5030635;28;20475;-67
2022/08/03 04:13:52;;;;;;;5.67;5.17;;;16.70;99.90;;;;;;5033373;28;20810;-68
2022/08/03 04:16:24;;;;;;;7.47;5.70;;;16.80;99.90;;;;;;5033216;28;20473;-67
2022/08/03 04:18:55;;;;;;;6.43;5.80;;;16.80;99.90;;;;;;5033492;28;20440;-65
2022/08/03 04:21:24;;;;;;;6.37;5.77;;;16.80;99.90;;;;;;5033171;28;20460;-66
2022/08/03 04:23:54;;;;;;;6.93;5.77;;;16.70;99.90;;;;;;5033237;28;20953;-67
2022/08/03 04:26:25;;;;;;;6.70;6.03;;;16.70;99.90;;;;;;5032729;28;20495;-67
2022/08/03 04:28:53;;;;;;;6.30;5.70;;;16.80;99.90;;;;;;5033342;28;20443;-67
2022/08/03 04:31:24;;;;;;;7.53;6.50;;;16.70;99.90;;;;;;5032975;28;20965;-68
2022/08/03 04:33:53;;;;;;;6.60;6.00;;;16.70;99.90;;;;;;5032847;28;20445;-67
2022/08/03 04:36:23;;;;;;;6.80;6.20;;;16.70;99.90;;;;;;5032559;28;20814;-68
2022/08/03 04:38:58;;;;;;;7.13;5.03;;;16.90;99.90;;;;;;5033339;28;20468;-67
2022/08/03 04:41:26;;;;;;;7.13;5.90;;;17.00;99.90;;;;;;5032878;28;20440;-67
2022/08/03 04:43:55;;;;;;;6.73;5.90;;;17.00;99.90;;;;;;5032867;28;20447;-67
2022/08/03 04:46:26;;;;;;;6.10;5.50;;;16.90;99.90;;;;;;5032211;28;20465;-67
2022/08/03 04:48:54;;;;;;;6.43;5.83;;;17.00;99.90;;;;;;5032694;28;20457;-67
2022/08/03 04:51:21;;;;;;;5.93;5.30;;;17.00;99.90;;;;;;5032638;28;20491;-68
2022/08/03 04:53:48;;;;;;;6.43;5.30;;;17.10;99.90;;;;;;5032573;28;20463;-66
2022/08/03 04:56:14;;;;;;;6.33;5.73;;;17.10;99.90;;;;;;5032113;28;20469;-67
2022/08/03 04:58:41;;;;;;;7.93;5.60;;;17.30;99.90;;;;;;5032499;28;20583;-69
2022/08/03 05:01:08;;;;;;;6.70;5.50;;;17.40;99.90;;;;;;5032737;28;20451;-68
2022/08/03 05:03:36;;;;;;;8.77;5.73;;;17.60;99.90;;;;;;5032277;28;20471;-65
2022/08/03 05:06:04;;;;;;;5.73;5.20;;;17.60;99.90;;;;;;5032198;28;20477;-66
2022/08/03 05:08:30;;;;;;;6.10;5.50;;;17.60;99.90;;;;;;5032296;28;20451;-66
2022/08/03 05:10:58;;;;;;;6.87;5.53;;;17.70;99.90;;;;;;5032436;28;20674;-65
2022/08/03 05:13:24;;;;;;;6.63;6.03;;;17.70;99.90;;;;;;5031947;28;20440;-67
2022/08/03 05:15:51;;;;;;;6.10;5.50;;;17.80;99.90;;;;;;5032021;28;20473;-61
2022/08/03 05:18:18;;;;;;;7.07;6.47;;;17.90;99.90;;;;;;5032056;28;20457;-63
2022/08/03 05:20:46;;;;;;;6.37;5.77;;;17.90;99.90;;;;;;5032032;28;20451;-66
2022/08/03 05:23:13;;;;;;;7.57;5.77;;;18.10;99.90;;;;;;5030948;28;20838;-63
2022/08/03 05:25:40;;;;;;;6.47;5.23;;;18.10;99.90;;;;;;5032075;28;20856;-66
2022/08/03 05:28:07;;;;;;;6.60;5.97;;;18.20;99.90;;;;;;5029763;28;20978;-65
2022/08/03 05:30:33;;;;;;;7.53;5.70;;;18.30;99.90;;;;;;5031848;28;20480;-65
2022/08/03 05:33:01;;;;;;;7.00;6.30;;;18.30;99.90;;;;;;5031957;28;20968;-64
2022/08/03 05:35:28;;;;;;;7.33;5.70;;;18.40;99.90;;;;;;5031364;28;20511;-63
2022/08/03 05:37:56;;;;;;;6.03;5.10;;;18.50;99.90;;;;;;5031797;28;20459;-64
2022/08/03 05:40:23;;;;;;;8.67;5.87;;;18.50;99.90;;;;;;5031528;28;20540;-64
2022/08/03 05:42:50;;;;;;;8.77;6.10;;;18.60;99.90;;;;;;5031965;28;20885;-65
2022/08/03 05:45:17;;;;;;;6.67;5.80;;;18.70;99.90;;;;;;5030746;28;20488;-65
2022/08/03 05:47:44;;;;;;;7.63;5.70;;;18.80;99.90;;;;;;5031671;28;20477;-65
2022/08/03 05:50:11;;;;;;;8.73;6.40;;;18.90;99.90;;;;;;5031623;28;20503;-64
2022/08/03 05:52:38;;;;;;;6.10;5.50;;;19.00;99.90;;;;;;5031848;28;20532;-65
2022/08/03 05:55:08;;;;;;;7.93;5.77;;;19.10;99.90;;;;;;5031391;28;20457;-65
2022/08/03 05:57:35;;;;;;;8.70;4.90;;;19.20;99.90;;;;;;5031663;28;20968;-65
2022/08/03 06:00:04;;;;;;;6.37;5.10;;;19.30;99.90;;;;;;5031830;28;20519;-67
2022/08/03 06:02:31;;;;;;;10.80;5.20;;;19.40;99.90;;;;;;5031808;28;20453;-65
2022/08/03 06:04:57;;;;;;;6.60;6.00;;;19.50;99.90;;;;;;5031304;28;20468;-67
2022/08/03 06:07:24;;;;;;;6.50;5.90;;;19.60;99.90;;;;;;5030189;28;20449;-67
2022/08/03 06:09:51;;;;;;;8.10;5.53;;;19.80;99.90;;;;;;5025717;28;20461;-69
2022/08/03 06:12:20;;;;;;;5.63;5.13;;;19.90;99.90;;;;;;5030070;28;20481;-65
2022/08/03 06:14:46;;;;;;;6.50;5.90;;;20.00;99.90;;;;;;5030520;28;20452;-72
2022/08/03 06:17:13;;;;;;;5.80;5.20;;;20.20;99.90;;;;;;5029791;28;20548;-64
2022/08/03 06:19:40;;;;;;;5.87;5.27;;;20.30;99.90;;;;;;5022166;28;20517;-66
2022/08/03 06:22:07;;;;;;;5.67;5.07;;;20.40;99.90;;;;;;5015992;28;20456;-68
2022/08/03 06:24:34;;;;;;;6.07;5.47;;;20.50;99.90;;;;;;5027100;28;20448;-67
2022/08/03 06:27:00;;;;;;;5.57;5.07;;;20.70;99.90;;;;;;5020918;28;20472;-67
2022/08/03 06:29:29;;;;;;;8.10;4.87;;;20.80;99.90;;;;;;5028275;28;20437;-67
2022/08/03 06:31:55;;;;;;;7.97;5.70;;;21.00;99.90;;;;;;5029893;28;20477;-66
2022/08/03 06:34:22;;;;;;;6.50;5.63;;;21.10;99.90;;;;;;5030164;28;20810;-66
2022/08/03 06:36:50;;;;;;;7.30;5.33;;;21.20;99.90;;;;;;5030381;28;20504;-66
2022/08/03 06:39:17;;;;;;;6.50;5.00;;;21.30;99.90;;;;;;5030560;28;20471;-67
2022/08/03 06:41:44;;;;;;;6.97;5.30;;;21.40;99.90;;;;;;5027326;28;20445;-68
2022/08/03 06:44:11;;;;;;;5.63;4.63;;;21.50;99.90;;;;;;5029636;28;20453;-65
2022/08/03 06:46:39;;;;;;;6.37;4.73;;;21.70;99.90;;;;;;5021094;28;20931;-66
2022/08/03 06:49:07;;;;;;;6.13;4.80;;;21.80;99.90;;;;;;5021743;28;20442;-66
2022/08/03 06:51:34;;;;;;;7.40;5.10;;;22.00;99.90;;;;;;5022767;28;20481;-67
2022/08/03 06:54:01;;;;;;;5.80;4.20;;;22.10;99.90;;;;;;5026904;28;20843;-66
2022/08/03 06:56:27;;;;;;;5.33;4.83;;;22.20;99.90;;;;;;5029178;28;20461;-66
2022/08/03 06:58:54;;;;;;;5.60;5.10;;;22.30;99.90;;;;;;5027196;28;20437;-65
2022/08/03 07:01:21;;;;;;;4.67;4.13;;;22.40;99.90;;;;;;5033476;28;20435;-66
2022/08/03 07:03:49;;;;;;;5.50;4.70;;;22.50;99.90;;;;;;5038126;28;20437;-66
2022/08/03 07:06:16;;;;;;;5.77;4.93;;;22.60;99.90;;;;;;5029218;28;20457;-67
2022/08/03 07:08:43;;;;;;;5.30;4.80;;;22.70;99.90;;;;;;5030214;28;20449;-66
2022/08/03 07:11:09;;;;;;;5.10;4.00;;;22.80;99.90;;;;;;5029783;28;20481;-65
2022/08/03 07:13:36;;;;;;;6.20;4.00;;;22.90;99.90;;;;;;5030104;28;20453;-66
2022/08/03 07:16:03;;;;;;;5.03;3.50;;;23.00;99.90;;;;;;5027769;28;20484;-65
2022/08/03 07:18:30;;;;;;;4.10;3.53;;;23.10;99.90;;;;;;5029522;28;20444;-65
2022/08/03 07:20:58;;;;;;;3.80;3.33;;;23.30;99.90;;;;;;5030204;28;20445;-65
2022/08/03 07:23:25;;;;;;;5.27;3.40;;;23.30;99.90;;;;;;5029149;28;20836;-65
2022/08/03 07:25:52;;;;;;;6.93;3.47;;;23.40;99.90;;;;;;5029081;28;20473;-65
2022/08/03 07:28:19;;;;;;;3.63;3.33;;;23.50;99.90;;;;;;5029241;28;20441;-65
2022/08/03 07:30:46;;;;;;;3.50;3.00;;;23.70;99.90;;;;;;5029002;28;20473;-66
2022/08/03 07:33:13;;;;;;;3.50;3.17;;;23.80;99.90;;;;;;5028865;28;20888;-66
2022/08/03 07:35:40;;;;;;;5.17;3.20;;;24.00;99.90;;;;;;5029487;28;21028;-67
2022/08/03 07:38:09;;;;;;;7.50;3.77;;;24.00;99.90;;;;;;5029547;28;20459;-66
2022/08/03 07:40:36;;;;;;;4.27;3.40;;;24.10;99.90;;;;;;5024609;28;20798;-66
2022/08/03 07:43:03;;;;;;;4.40;3.20;;;24.20;99.90;;;;;;5026532;28;20460;-64
2022/08/03 07:45:30;;;;;;;4.70;3.90;;;24.40;99.90;;;;;;5020632;28;20491;-66
2022/08/03 07:47:57;;;;;;;5.73;3.50;;;24.50;99.90;;;;;;5026750;28;20456;-68
2022/08/03 07:50:25;;;;;;;4.63;3.30;;;24.60;99.90;;;;;;5027055;28;20449;-65
2022/08/03 07:52:54;;;;;;;3.50;3.00;;;24.70;99.90;;;;;;5029263;28;20476;-67
2022/08/03 07:55:26;;;;;;;5.03;3.43;;;24.70;99.90;;;;;;5028694;28;20483;-67
2022/08/03 07:58:01;;;;;;;4.07;2.70;;;24.90;99.90;;;;;;5026352;28;20522;-66
2022/08/03 08:00:28;;;;;;;4.50;3.20;;;25.10;99.90;;;;;;5022402;28;20949;-66
2022/08/03 08:02:55;;;;;;;3.80;2.97;;;25.30;99.90;;;;;;5029241;28;20503;-66
2022/08/03 08:05:22;;;;;;;5.30;3.10;;;25.40;99.90;;;;;;5024152;28;20477;-66
2022/08/03 08:07:48;;;;;;;5.17;2.83;;;25.50;99.90;;;;;;5023223;28;20475;-63
2022/08/03 08:10:15;;;;;;;3.57;3.07;;;25.60;99.90;;;;;;5024298;28;20494;-65
2022/08/03 08:12:44;;;;;;;4.03;3.30;;;25.70;99.90;;;;;;5022231;28;20488;-63
2022/08/03 08:15:10;;;;;;;4.30;3.30;;;25.80;99.90;;;;;;5025369;28;20504;-66
2022/08/03 08:17:46;;;;;;;3.50;2.97;;;26.00;99.90;;;;;;5028827;28;20448;-65
2022/08/03 08:20:17;;;;;;;2.80;2.50;;;26.10;99.90;;;;;;5023432;28;20456;-64
2022/08/03 08:22:44;;;;;;;2.70;2.50;;;26.30;99.90;;;;;;5027140;28;21207;-66
2022/08/03 08:25:11;;;;;;;3.13;2.80;;;26.40;99.90;;;;;;5027117;28;20468;-66
2022/08/03 08:27:44;;;;;;;6.20;2.60;;;26.50;99.90;;;;;;5025863;28;20522;-67
2022/08/03 08:30:12;;;;;;;4.17;2.50;;;26.70;99.90;;;;;;5027093;28;20809;-67
2022/08/03 08:32:39;;;;;;;3.67;2.50;;;26.80;99.90;;;;;;5026997;28;20476;-66
2022/08/03 08:35:07;;;;;;;3.40;2.10;;;27.00;99.90;;;;;;5026070;28;20628;-67
2022/08/03 08:37:35;;;;;;;2.63;2.10;;;27.20;99.90;;;;;;5026930;28;20460;-67
2022/08/03 08:40:02;;;;;;;2.97;2.37;;;27.40;99.70;;;;;;5027393;28;20935;-66
2022/08/03 08:42:30;;;;;;;3.20;2.30;;;27.50;99.70;;;;;;5029400;28;20445;-68
2022/08/03 08:45:00;;;;;;;2.77;1.93;;;27.70;99.90;;;;;;5028884;28;20453;-67
2022/08/03 08:47:31;;;;;;;2.80;2.30;;;27.70;98.70;;;;;;5029037;28;20455;-67
2022/08/03 08:49:59;;;;;;;2.67;2.20;;;27.90;98.60;;;;;;5029066;28;20985;-67
2022/08/03 08:52:29;;;;;;;2.63;2.00;;;28.00;97.20;;;;;;5029041;28;20578;-65
2022/08/03 08:54:58;;;;;;;2.67;2.03;;;28.10;97.10;;;;;;5029000;28;20449;-67
2022/08/03 08:57:29;;;;;;;2.77;1.70;;;28.20;97.20;;;;;;5029264;28;20449;-67
2022/08/03 08:59:58;;;;;;;4.60;2.20;;;28.40;97.40;;;;;;5032646;28;20455;-66
2022/08/03 09:02:25;;;;;;;4.73;1.90;;;28.40;96.50;;;;;;5032539;28;20550;-67
2022/08/03 09:04:53;;;;;;;2.70;2.20;;;28.60;95.60;;;;;;5032097;28;20456;-67
2022/08/03 09:07:20;;;;;;;2.40;1.67;;;28.70;94.00;;;;;;5032788;28;20984;-67
2022/08/03 09:09:47;;;;;;;3.00;1.93;;;28.80;94.40;;;;;;5032613;28;20452;-67
2022/08/03 09:12:14;;;;;;;3.80;2.10;;;29.00;93.80;;;;;;5032418;28;20583;-67
2022/08/03 09:14:41;;;;;;;2.30;1.70;;;29.00;93.30;;;;;;5032077;28;20455;-67
2022/08/03 09:17:09;;;;;;;2.43;1.60;;;29.30;92.40;;;;;;5032455;28;20504;-66
2022/08/03 09:19:36;;;;;;;2.50;1.50;;;29.40;92.20;;;;;;5032213;28;20820;-66
2022/08/03 09:22:11;;;;;;;2.43;1.70;;;29.60;92.10;;;;;;5032321;28;20475;-65
2022/08/03 09:24:53;;;;;;;2.80;2.03;;;29.80;90.90;;;;;;5031922;28;20467;-64
2022/08/03 09:27:20;;;;;;;2.33;1.80;;;30.00;90.40;;;;;;5031935;28;20465;-65
2022/08/03 09:29:48;;;;;;;4.27;2.80;;;30.10;90.10;;;;;;5031760;28;20537;-65
2022/08/03 09:32:20;;;;;;;2.60;1.90;;;30.10;90.70;;;;;;5031801;28;20538;-65
2022/08/03 09:34:48;;;;;;;5.77;2.30;;;30.10;91.60;;;;;;5031473;28;20941;-64
2022/08/03 09:37:15;;;;;;;4.30;2.47;;;30.00;90.20;;;;;;5031882;28;21041;-66
2022/08/03 09:39:42;;;;;;;3.33;1.90;;;30.00;90.30;;;;;;5032104;28;20453;-66
2022/08/03 09:42:11;;;;;;;2.77;1.73;;;30.20;89.80;;;;;;5031831;28;20448;-66
2022/08/03 09:44:40;;;;;;;2.67;2.03;;;30.30;87.10;;;;;;5031862;28;20471;-66
2022/08/03 09:47:08;;;;;;;2.43;1.70;;;30.20;87.20;;;;;;5031938;28;20491;-66
2022/08/03 09:49:37;;;;;;;2.93;1.87;;;30.20;86.50;;;;;;5031949;28;20480;-66
2022/08/03 09:52:13;;;;;;;3.97;2.00;;;30.40;87.80;;;;;;5031898;28;20871;-66
2022/08/03 09:54:41;;;;;;;2.63;2.03;;;30.90;87.80;;;;;;5031445;28;20444;-65
2022/08/03 09:57:08;;;;;;;2.70;1.93;;;31.40;82.40;;;;;;5031862;28;20469;-66
2022/08/03 09:59:35;;;;;;;3.90;1.87;;;32.00;82.90;;;;;;5031861;28;20445;-66
2022/08/03 10:02:02;;;;;;;2.90;2.17;;;32.80;81.20;;;;;;5031632;28;20445;-65
2022/08/03 10:04:29;;;;;;;2.67;2.20;;;33.50;78.60;;;;;;5031424;28;20824;-67
2022/08/03 10:07:05;;;;;;;3.47;2.30;;;34.30;74.10;;;;;;5031602;28;20461;-66
2022/08/03 10:09:32;;;;;;;2.77;1.63;;;34.60;74.00;;;;;;5031336;28;20935;-67
2022/08/03 10:12:08;;;;;;;2.90;2.03;;;34.80;71.60;;;;;;5031858;28;20579;-66
2022/08/03 10:14:38;;;;;;;3.40;2.13;;;35.30;70.60;;;;;;5031545;28;20456;-66
2022/08/03 10:17:05;;;;;;;3.70;2.00;;;35.20;71.30;;;;;;5031313;28;20469;-64
2022/08/03 10:19:32;;;;;;;3.90;1.90;;;35.50;71.30;;;;;;5031036;28;20453;-67
2022/08/03 10:22:06;;;;;;;2.60;1.90;;;35.90;69.20;;;;;;5031234;28;20823;-66
2022/08/03 10:24:35;;;;;;;3.10;1.87;;;36.30;67.40;;;;;;5031268;28;20449;-66
2022/08/03 10:27:05;;;;;;;2.43;1.50;;;36.80;65.90;;;;;;5030842;28;21009;-66
2022/08/03 10:29:38;;;;;;;5.40;1.70;;;37.20;64.90;;;;;;5030987;28;20449;-66
2022/08/03 10:32:14;;;;;;;2.50;2.10;;;37.40;62.20;;;;;;5030981;28;20481;-67
2022/08/03 10:34:43;;;;;;;2.30;1.70;;;37.20;60.80;;;;;;5030657;28;20475;-66
2022/08/03 10:37:13;;;;;;;3.07;1.83;;;37.10;59.80;;;;;;5031015;28;20534;-66
2022/08/03 10:39:52;;;;;;;2.30;1.60;;;37.00;58.60;;;;;;5031129;28;20453;-65
2022/08/03 10:42:23;;;;;;;3.30;1.77;;;37.10;58.40;;;;;;5030749;28;20455;-67
2022/08/03 10:44:57;;;;;;;2.43;1.60;;;37.20;56.80;;;;;;5030380;28;20464;-66
2022/08/03 10:47:24;;;;;;;2.40;1.63;;;37.50;58.80;;;;;;5030982;28;20472;-67
2022/08/03 10:49:51;;;;;;;4.47;1.63;;;37.70;54.50;;;;;;5030771;28;20841;-67
2022/08/03 10:52:19;;;;;;;3.03;1.77;;;37.30;57.90;;;;;;5030643;28;20859;-67
2022/08/03 10:57:49;;;;;;;2.37;1.70;;;37.80;56.10;;;;;;5030615;28;20502;-67
2022/08/03 11:00:17;;;;;;;2.37;1.40;;;37.90;54.00;;;;;;5030371;28;20455;-67
2022/08/03 11:03:07;;;;;;;2.10;1.57;;;37.80;53.80;;;;;;5030318;28;20947;-65
2022/08/03 11:05:40;;;;;;;3.10;1.90;;;37.30;53.30;;;;;;5029933;28;20473;-66
2022/08/03 11:08:26;;;;;;;2.60;2.07;;;37.00;54.00;;;;;;5030530;28;20449;-66
2022/08/03 11:10:55;;;;;;;3.40;1.90;;;36.80;55.90;;;;;;5030561;28;20453;-67
2022/08/03 11:13:23;;;;;;;2.20;1.53;;;37.20;55.30;;;;;;5030278;28;20567;-67
2022/08/03 11:15:53;;;;;;;2.70;2.10;;;37.60;54.70;;;;;;5029769;28;20471;-67
2022/08/03 11:18:20;;;;;;;2.27;1.83;;;37.80;55.10;;;;;;5030340;28;20826;-66
2022/08/03 11:20:49;;;;;;;2.47;1.60;;;37.90;52.30;;;;;;5029683;28;20456;-67
2022/08/03 11:23:16;;;;;;;3.37;1.70;;;38.10;52.50;;;;;;5030175;28;20440;-67
2022/08/03 11:26:10;;;;;;;2.60;2.07;;;38.20;52.90;;;;;;5029749;28;20476;-67
2022/08/03 11:28:38;;;;;;;4.27;2.20;;;37.60;51.40;;;;;;5029915;28;20451;-67
2022/08/03 11:31:46;;;;;;;2.90;2.00;;;36.90;52.90;;;;;;5030167;28;20440;-67
2022/08/03 11:34:15;;;;;;;2.00;1.50;;;36.70;53.50;;;;;;4949485;29;21212;-66
2022/08/03 11:37:20;;;;;;;3.83;2.20;;;36.50;53.40;;;;;;5017668;28;20473;-67
2022/08/03 11:39:50;;;;;;;4.23;2.13;;;35.70;54.30;;;;;;5029748;28;20506;-66
2022/08/03 11:42:45;;;;;;;4.00;2.40;;;34.90;54.70;;;;;;5029871;28;21002;-67
2022/08/03 11:45:13;;;;;;;3.03;2.17;;;34.80;55.90;;;;;;5029279;28;21032;-67
2022/08/03 11:47:41;;;;;;;2.93;2.10;;;35.00;55.90;;;;;;5029680;28;20976;-67
2022/08/03 11:50:09;;;;;;;3.20;1.93;;;35.60;55.90;;;;;;5029718;28;20860;-66
2022/08/03 11:52:41;;;;;;;4.20;2.17;;;35.90;54.10;;;;;;5029720;28;20484;-66
2022/08/03 11:55:13;;;;;;;2.50;2.00;;;36.60;53.60;;;;;;5029364;28;20453;-67
2022/08/03 11:57:40;;;;;;;3.07;2.10;;;37.30;53.70;;;;;;5029677;28;20959;-66
2022/08/03 12:00:22;;;;;;;2.53;1.93;;;37.90;51.80;;;;;;5029774;28;20474;-66
2022/08/03 12:03:00;;;;;;;2.27;2.07;;;38.70;53.90;;;;;;5029689;28;20447;-67
2022/08/03 12:05:34;;;;;;;3.60;2.27;;;38.90;49.40;;;;;;5029351;28;20470;-68
2022/08/03 12:08:01;;;;;;;2.43;2.00;;;39.00;51.00;;;;;;5029564;28;20448;-67
2022/08/03 12:10:28;;;;;;;4.63;2.33;;;39.40;50.00;;;;;;5029610;28;21259;-67
2022/08/03 12:12:56;;;;;;;2.23;1.83;;;39.40;49.80;;;;;;5029379;28;21005;-67
2022/08/03 12:15:27;;;;;;;2.40;1.87;;;39.60;50.10;;;;;;5029138;28;20465;-67
2022/08/03 12:17:54;;;;;;;3.60;1.73;;;40.00;48.70;;;;;;5029651;28;20449;-67
2022/08/03 12:20:22;;;;;;;3.90;1.60;;;40.50;46.60;;;;;;5029507;28;21147;-67
2022/08/03 12:22:49;;;;;;;2.50;1.87;;;40.80;47.00;;;;;;5029817;28;20451;-66
2022/08/03 12:25:22;;;;;;;2.13;1.73;;;40.90;44.10;;;;;;5029382;28;20471;-66
2022/08/03 12:27:49;;;;;;;2.53;1.80;;;40.90;43.90;;;;;;5029515;28;20457;-64
2022/08/03 12:30:16;;;;;;;2.50;1.80;;;41.10;44.50;;;;;;5029699;28;20479;-67
2022/08/03 12:32:45;;;;;;;5.00;1.80;;;41.40;44.20;;;;;;5031724;28;20480;-67
2022/08/03 12:35:23;;;;;;;4.40;2.00;;;41.20;44.10;;;;;;5032805;28;20552;-67
2022/08/03 12:37:49;;;;;;;2.10;1.63;;;41.40;43.30;;;;;;5033455;28;20441;-65
2022/08/03 12:40:25;;;;;;;2.30;1.90;;;41.40;45.10;;;;;;5033269;28;20445;-67
2022/08/03 12:42:52;;;;;;;2.13;1.63;;;41.60;43.70;;;;;;5033246;28;20445;-67
2022/08/03 12:45:21;;;;;;;2.40;1.83;;;41.50;43.40;;;;;;5032684;28;20479;-67
2022/08/03 12:47:57;;;;;;;3.47;1.93;;;40.70;43.00;;;;;;5032917;28;20452;-67
2022/08/03 12:50:25;;;;;;;2.30;1.90;;;40.50;43.40;;;;;;5033125;28;20448;-67
2022/08/03 12:52:52;;;;;;;3.33;2.03;;;40.60;44.10;;;;;;5032978;28;20485;-65
2022/08/03 12:55:20;;;;;;;2.83;2.10;;;40.70;43.10;;;;;;5032509;28;20475;-67
2022/08/03 12:57:47;;;;;;;4.33;2.27;;;40.70;43.00;;;;;;5032751;28;20459;-66
2022/08/03 13:00:17;;;;;;;3.33;2.10;;;40.60;43.90;;;;;;5032693;28;20452;-68
2022/08/03 13:02:44;;;;;;;2.77;1.83;;;41.10;43.90;;;;;;5032935;28;20810;-66
2022/08/03 13:05:14;;;;;;;3.37;1.60;;;41.90;42.00;;;;;;5032435;28;20465;-67